createdAt,value
2022-08-22T00:00:19.494Z,16.61
2022-08-22T00:06:07.538Z,16.48
2022-08-22T00:08:47.858Z,16.49
2022-08-22T00:11:21.991Z,16.48
2022-08-22T00:14:01.441Z,16.53
2022-08-22T00:16:35.969Z,16.47
2022-08-22T00:19:14.787Z,16.53
2022-08-22T00:21:49.997Z,16.53
2022-08-22T00:24:28.981Z,16.65
2022-08-22T00:27:04.263Z,16.55
2022-08-22T00:29:39.594Z,16.49
2022-08-22T00:32:14.319Z,16.58
2022-08-22T00:34:48.904Z,16.90
2022-08-22T00:37:24.455Z,16.97
2022-08-22T00:40:00.138Z,17.02
2022-08-22T00:43:03.286Z,17.23
2022-08-22T00:45:55.194Z,16.92
2022-08-22T00:48:50.889Z,16.74
2022-08-22T00:51:43.183Z,16.60
2022-08-22T00:54:21.865Z,16.44
2022-08-22T00:57:10.006Z,16.30
2022-08-22T01:00:02.106Z,16.17
2022-08-22T01:02:39.201Z,16.05
2022-08-22T01:05:24.125Z,15.91
2022-08-22T01:08:04.457Z,15.92
2022-08-22T01:10:49.804Z,15.90
2022-08-22T01:13:44.144Z,15.85
2022-08-22T01:16:26.928Z,15.88
2022-08-22T01:19:21.812Z,16.16
2022-08-22T01:22:31.217Z,16.44
2022-08-22T01:25:37.634Z,16.28
2022-08-22T01:28:25.434Z,16.15
2022-08-22T01:31:30.778Z,16.03
2022-08-22T01:34:30.147Z,15.95
2022-08-22T01:37:33.486Z,15.89
2022-08-22T01:40:54.432Z,15.83
2022-08-22T01:43:59.126Z,15.85
2022-08-22T01:46:36.175Z,15.96
2022-08-22T01:49:12.028Z,15.98
2022-08-22T01:51:47.656Z,15.98
2022-08-22T01:54:29.059Z,15.96
2022-08-22T01:57:03.077Z,15.92
2022-08-22T01:59:34.691Z,15.83
2022-08-22T02:02:29.507Z,15.82
2022-08-22T02:05:07.518Z,15.82
2022-08-22T02:07:46.126Z,15.83
2022-08-22T02:10:20.986Z,15.89
2022-08-22T02:12:57.795Z,16.01
2022-08-22T02:15:34.270Z,15.93
2022-08-22T02:18:13.153Z,15.89
2022-08-22T02:20:57.915Z,15.82
2022-08-22T02:23:36.880Z,15.85
2022-08-22T02:26:10.521Z,16.12
2022-08-22T02:28:56.759Z,16.29
2022-08-22T02:31:37.291Z,16.20
2022-08-22T02:34:21.786Z,16.11
2022-08-22T02:36:58.085Z,15.99
2022-08-22T02:39:36.717Z,15.85
2022-08-22T02:42:21.281Z,15.75
2022-08-22T02:44:58.857Z,15.66
2022-08-22T02:47:35.873Z,15.55
2022-08-22T02:50:18.665Z,15.46
2022-08-22T02:52:57.725Z,15.40
2022-08-22T02:55:41.861Z,15.32
2022-08-22T02:58:20.238Z,15.30
2022-08-22T03:00:52.250Z,15.26
2022-08-22T03:03:24.502Z,15.21
2022-08-22T03:06:02.488Z,15.09
2022-08-22T03:08:34.406Z,14.98
2022-08-22T03:11:16.268Z,14.89
2022-08-22T03:14:00.329Z,14.80
2022-08-22T03:16:35.013Z,14.71
2022-08-22T03:19:07.288Z,14.61
2022-08-22T03:21:46.508Z,14.51
2022-08-22T03:24:21.488Z,14.42
2022-08-22T03:26:53.811Z,14.35
2022-08-22T03:29:28.028Z,14.32
2022-08-22T03:32:09.986Z,14.26
2022-08-22T03:34:39.519Z,14.19
2022-08-22T03:37:16.626Z,14.13
2022-08-22T03:39:57.675Z,14.06
2022-08-22T03:43:06.056Z,14.00
2022-08-22T03:46:18.541Z,13.97
2022-08-22T03:49:15.868Z,13.98
2022-08-22T03:52:15.875Z,13.90
2022-08-22T03:55:11.147Z,13.85
2022-08-22T03:58:15.873Z,13.82
2022-08-22T04:01:33.129Z,13.75
2022-08-22T04:04:32.918Z,13.69
2022-08-22T04:07:35.009Z,13.67
2022-08-22T04:10:42.371Z,13.68
2022-08-22T04:13:52.690Z,13.60
2022-08-22T04:16:42.067Z,13.54
2022-08-22T04:19:56.289Z,13.49
2022-08-22T04:22:41.065Z,13.48
2022-08-22T04:25:12.971Z,13.44
2022-08-22T04:27:45.945Z,13.42
2022-08-22T04:30:25.089Z,13.41
2022-08-22T04:33:02.215Z,13.42
2022-08-22T04:35:34.045Z,13.40
2022-08-22T04:38:09.278Z,13.41
2022-08-22T04:40:44.844Z,13.44
2022-08-22T04:43:18.187Z,13.46
2022-08-22T04:45:51.433Z,13.50
2022-08-22T04:48:30.330Z,13.54
2022-08-22T04:51:03.115Z,13.57
2022-08-22T04:54:02.647Z,13.61
2022-08-22T04:56:39.794Z,13.64
2022-08-22T04:59:12.636Z,13.68
2022-08-22T05:01:47.431Z,13.74
2022-08-22T05:04:22.074Z,13.82
2022-08-22T05:06:54.651Z,13.87
2022-08-22T05:09:28.267Z,13.91
2022-08-22T05:12:01.314Z,13.97
2022-08-22T05:14:39.332Z,14.06
2022-08-22T05:17:10.692Z,14.15
2022-08-22T05:19:43.119Z,14.26
2022-08-22T05:22:18.691Z,14.36
2022-08-22T05:24:49.963Z,14.47
2022-08-22T05:27:21.952Z,14.61
2022-08-22T05:29:54.683Z,14.70
2022-08-22T05:32:26.871Z,14.82
2022-08-22T05:35:01.706Z,14.94
2022-08-22T05:37:39.196Z,15.05
2022-08-22T05:40:09.518Z,15.17
2022-08-22T05:42:38.181Z,15.29
2022-08-22T05:45:12.292Z,15.42
2022-08-22T05:47:43.270Z,15.61
2022-08-22T05:50:18.238Z,15.74
2022-08-22T05:53:00.679Z,15.88
2022-08-22T05:55:33.538Z,16.04
2022-08-22T05:58:17.817Z,16.17
2022-08-22T06:00:53.064Z,16.31
2022-08-22T06:03:28.790Z,16.44
2022-08-22T06:06:03.910Z,16.61
2022-08-22T06:08:36.533Z,16.79
2022-08-22T06:11:09.847Z,17.00
2022-08-22T06:13:41.850Z,17.18
2022-08-22T06:16:17.643Z,17.47
2022-08-22T06:18:47.078Z,18.04
2022-08-22T06:21:21.989Z,18.27
2022-08-22T06:23:56.616Z,18.63
2022-08-22T06:26:26.547Z,18.98
2022-08-22T06:28:59.219Z,19.23
2022-08-22T06:31:31.858Z,19.49
2022-08-22T06:34:06.228Z,19.74
2022-08-22T06:36:38.463Z,19.74
2022-08-22T06:39:19.729Z,20.09
2022-08-22T06:41:53.656Z,20.49
2022-08-22T06:44:24.966Z,20.49
2022-08-22T06:46:58.676Z,20.91
2022-08-22T06:49:28.177Z,21.15
2022-08-22T06:52:01.239Z,21.13
2022-08-22T06:54:34.897Z,21.21
2022-08-22T06:57:06.536Z,21.65
2022-08-22T06:59:38.400Z,21.48
2022-08-22T07:02:17.978Z,22.15
2022-08-22T07:04:50.137Z,21.94
2022-08-22T07:07:21.349Z,21.97
2022-08-22T07:09:55.320Z,22.10
2022-08-22T07:12:28.851Z,22.58
2022-08-22T07:15:01.663Z,22.50
2022-08-22T07:17:35.886Z,22.57
2022-08-22T07:20:11.272Z,22.99
2022-08-22T07:22:40.639Z,23.24
2022-08-22T07:25:13.828Z,23.40
2022-08-22T07:27:55.937Z,23.76
2022-08-22T07:30:28.565Z,23.78
2022-08-22T07:33:21.032Z,24.44
2022-08-22T07:35:53.468Z,24.44
2022-08-22T07:38:34.758Z,25.09
2022-08-22T07:41:11.027Z,25.23
2022-08-22T07:43:44.223Z,25.30
2022-08-22T07:46:23.048Z,25.64
2022-08-22T07:49:08.701Z,26.13
2022-08-22T07:51:44.250Z,26.14
2022-08-22T07:54:17.407Z,25.45
2022-08-22T07:56:53.119Z,26.21
2022-08-22T07:59:23.020Z,26.30
2022-08-22T08:01:54.680Z,26.40
2022-08-22T08:04:26.315Z,26.16
2022-08-22T08:06:58.462Z,26.00
2022-08-22T08:09:32.917Z,26.44
2022-08-22T08:12:03.218Z,26.90
2022-08-22T08:14:32.618Z,26.87
2022-08-22T08:17:03.042Z,26.26
2022-08-22T08:19:35.305Z,25.82
2022-08-22T08:22:04.780Z,25.37
2022-08-22T08:24:41.099Z,25.18
2022-08-22T08:27:45.906Z,24.57
2022-08-22T08:30:21.198Z,24.41
2022-08-22T08:32:53.915Z,24.43
2022-08-22T08:35:28.882Z,24.62
2022-08-22T08:38:03.050Z,25.73
2022-08-22T08:40:54.226Z,27.04
2022-08-22T08:43:34.283Z,27.40
2022-08-22T08:46:35.619Z,27.55
2022-08-22T08:49:29.413Z,27.93
2022-08-22T08:52:30.298Z,27.98
2022-08-22T08:55:19.699Z,29.30
2022-08-22T08:58:10.842Z,28.90
2022-08-22T09:00:54.787Z,29.88
2022-08-22T09:03:51.433Z,29.50
2022-08-22T09:09:46.079Z,29.41
2022-08-22T09:12:56.187Z,29.34
2022-08-22T09:15:58.736Z,29.33
2022-08-22T09:18:49.687Z,29.14
2022-08-22T09:22:05.427Z,28.64
2022-08-22T09:25:07.400Z,28.41
2022-08-22T09:27:39.381Z,28.86
2022-08-22T09:30:12.334Z,30.09
2022-08-22T09:32:48.625Z,29.46
2022-08-22T09:35:26.285Z,28.76
2022-08-22T09:38:20.054Z,28.71
2022-08-22T09:40:55.773Z,30.08
2022-08-22T09:43:37.623Z,31.67
2022-08-22T09:46:16.037Z,31.35
2022-08-22T09:48:54.038Z,31.38
2022-08-22T09:51:34.404Z,32.36
2022-08-22T09:54:14.391Z,32.29
2022-08-22T09:56:53.371Z,32.77
2022-08-22T09:59:23.830Z,33.16
2022-08-22T10:02:00.516Z,33.02
2022-08-22T10:04:45.899Z,32.49
2022-08-22T10:07:36.164Z,32.27
2022-08-22T10:10:17.294Z,32.92
2022-08-22T10:12:55.999Z,33.52
2022-08-22T10:15:35.822Z,33.47
2022-08-22T10:18:19.798Z,32.69
2022-08-22T10:21:04.036Z,33.25
2022-08-22T10:23:40.432Z,32.74
2022-08-22T10:26:25.694Z,33.22
2022-08-22T10:28:59.284Z,32.32
2022-08-22T10:31:35.285Z,32.80
2022-08-22T10:34:25.705Z,31.35
2022-08-22T10:37:06.376Z,29.63
2022-08-22T10:39:44.323Z,29.27
2022-08-22T10:42:28.124Z,29.17
2022-08-22T10:45:35.228Z,29.75
2022-08-22T10:48:33.559Z,31.40
2022-08-22T10:51:16.250Z,32.86
2022-08-22T10:54:08.880Z,32.82
2022-08-22T10:56:43.772Z,32.45
2022-08-22T10:59:27.912Z,33.67
2022-08-22T11:02:08.175Z,33.26
2022-08-22T11:04:54.045Z,33.41
2022-08-22T11:07:48.794Z,33.23
2022-08-22T11:10:35.668Z,33.86
2022-08-22T11:13:17.636Z,34.66
2022-08-22T11:15:59.864Z,34.62
2022-08-22T11:18:58.625Z,35.13
2022-08-22T11:21:45.840Z,35.93
2022-08-22T11:24:54.008Z,35.50
2022-08-22T11:27:38.313Z,36.28
2022-08-22T11:30:18.646Z,36.20
2022-08-22T11:33:11.570Z,33.18
2022-08-22T11:35:45.335Z,34.15
2022-08-22T11:38:32.450Z,34.89
2022-08-22T11:41:09.322Z,35.96
2022-08-22T11:43:50.661Z,36.07
2022-08-22T11:46:25.542Z,36.93
2022-08-22T11:49:06.317Z,36.12
2022-08-22T11:52:06.498Z,37.19
2022-08-22T11:55:07.248Z,37.67
2022-08-22T11:57:39.021Z,36.44
2022-08-22T12:00:27.237Z,37.58
2022-08-22T12:03:23.251Z,37.20
2022-08-22T12:05:58.663Z,37.53
2022-08-22T12:08:57.460Z,37.08
2022-08-22T12:11:33.918Z,37.37
2022-08-22T12:14:06.839Z,36.08
2022-08-22T12:16:44.947Z,36.31
2022-08-22T12:19:26.065Z,36.47
2022-08-22T12:22:32.279Z,35.51
2022-08-22T12:25:11.946Z,35.07
2022-08-22T12:27:55.505Z,33.95
2022-08-22T12:30:34.763Z,34.11
2022-08-22T12:33:22.039Z,34.43
2022-08-22T12:36:05.419Z,34.55
2022-08-22T12:38:50.176Z,34.08
2022-08-22T12:41:41.102Z,34.68
2022-08-22T12:44:33.330Z,34.66
2022-08-22T12:47:12.847Z,33.59
2022-08-22T12:49:59.513Z,34.36
2022-08-22T12:52:52.596Z,34.15
2022-08-22T12:55:34.574Z,32.81
2022-08-22T12:58:12.093Z,33.13
2022-08-22T13:00:45.127Z,33.51
2022-08-22T13:03:22.786Z,33.71
2022-08-22T13:05:57.172Z,33.73
2022-08-22T13:08:32.373Z,33.78
2022-08-22T13:11:03.187Z,34.80
2022-08-22T13:13:38.982Z,34.80
2022-08-22T13:16:11.790Z,34.72
2022-08-22T13:18:53.655Z,35.27
2022-08-22T13:21:36.186Z,35.53
2022-08-22T13:24:10.491Z,34.21
2022-08-22T13:26:49.287Z,35.71
2022-08-22T13:29:26.461Z,34.85
2022-08-22T13:32:00.202Z,34.48
2022-08-22T13:34:39.880Z,34.87
2022-08-22T13:37:16.000Z,34.76
2022-08-22T13:39:48.979Z,34.41
2022-08-22T13:42:29.723Z,34.13
2022-08-22T13:45:02.257Z,35.01
2022-08-22T13:47:32.416Z,34.97
2022-08-22T13:50:14.523Z,35.12
2022-08-22T13:52:52.181Z,35.69
2022-08-22T13:55:30.109Z,34.85
2022-08-22T13:58:07.667Z,34.65
2022-08-22T14:01:10.440Z,35.97
2022-08-22T14:03:48.609Z,35.83
2022-08-22T14:06:41.560Z,35.54
2022-08-22T14:09:30.685Z,34.94
2022-08-22T14:12:12.190Z,33.97
2022-08-22T14:14:46.034Z,34.89
2022-08-22T14:17:21.394Z,34.00
2022-08-22T14:19:59.485Z,33.21
2022-08-22T14:22:35.136Z,33.13
2022-08-22T14:25:10.335Z,32.73
2022-08-22T14:27:43.787Z,31.98
2022-08-22T14:30:17.057Z,30.61
2022-08-22T14:32:51.540Z,30.36
2022-08-22T14:35:29.250Z,30.20
2022-08-22T14:38:29.926Z,30.61
2022-08-22T14:41:07.952Z,30.48
2022-08-22T14:43:49.222Z,31.93
2022-08-22T14:46:24.113Z,32.45
2022-08-22T14:49:14.731Z,32.76
2022-08-22T14:51:52.131Z,33.13
2022-08-22T14:54:23.632Z,33.25
2022-08-22T14:57:01.124Z,32.83
2022-08-22T14:59:36.557Z,32.23
2022-08-22T15:02:14.203Z,31.29
2022-08-22T15:04:46.424Z,30.87
2022-08-22T15:07:23.731Z,30.56
2022-08-22T15:09:56.666Z,30.55
2022-08-22T15:12:30.644Z,30.49
2022-08-22T15:15:01.569Z,30.92
2022-08-22T15:17:44.024Z,30.76
2022-08-22T15:20:27.900Z,31.05
2022-08-22T15:23:00.854Z,30.27
2022-08-22T15:25:34.034Z,30.20
2022-08-22T15:28:13.983Z,30.15
2022-08-22T15:30:45.662Z,30.15
2022-08-22T15:33:21.972Z,29.75
2022-08-22T15:35:52.709Z,29.55
2022-08-22T15:38:30.963Z,29.39
2022-08-22T15:41:32.498Z,29.53
2022-08-22T15:44:30.642Z,29.32
2022-08-22T15:47:05.445Z,29.38
2022-08-22T15:49:50.434Z,29.53
2022-08-22T15:52:27.030Z,29.48
2022-08-22T15:55:27.401Z,29.73
2022-08-22T15:58:05.941Z,29.63
2022-08-22T16:00:44.857Z,29.60
2022-08-22T16:03:25.464Z,29.40
2022-08-22T16:05:57.317Z,29.50
2022-08-22T16:08:32.916Z,29.58
2022-08-22T16:11:30.960Z,29.50
2022-08-22T16:14:17.694Z,29.37
2022-08-22T16:16:59.746Z,29.42
2022-08-22T16:19:29.057Z,29.58
2022-08-22T16:22:12.157Z,29.73
2022-08-22T16:25:03.624Z,29.88
2022-08-22T16:27:32.517Z,30.03
2022-08-22T16:30:06.241Z,30.19
2022-08-22T16:32:36.885Z,30.23
2022-08-22T16:35:05.499Z,30.45
2022-08-22T16:37:50.271Z,30.51
2022-08-22T16:40:26.141Z,30.50
2022-08-22T16:43:17.909Z,30.43
2022-08-22T16:45:48.459Z,30.25
2022-08-22T16:48:35.496Z,30.08
2022-08-22T16:51:13.993Z,29.84
2022-08-22T16:54:05.311Z,29.55
2022-08-22T16:56:52.513Z,29.29
2022-08-22T16:59:38.618Z,29.58
2022-08-22T17:02:23.397Z,29.27
2022-08-22T17:05:04.166Z,29.09
2022-08-22T17:07:45.456Z,29.00
2022-08-22T17:10:29.751Z,28.92
2022-08-22T17:13:26.323Z,28.96
2022-08-22T17:16:05.841Z,28.83
2022-08-22T17:18:47.286Z,28.62
2022-08-22T17:21:26.039Z,28.65
2022-08-22T17:24:00.055Z,28.50
2022-08-22T17:26:41.833Z,28.39
2022-08-22T17:29:26.035Z,28.33
2022-08-22T17:32:02.152Z,28.09
2022-08-22T17:34:38.875Z,27.99
2022-08-22T17:37:21.888Z,27.78
2022-08-22T17:40:02.590Z,27.71
2022-08-22T17:42:55.301Z,27.53
2022-08-22T17:45:34.243Z,27.42
2022-08-22T17:48:09.402Z,27.24
2022-08-22T17:50:43.455Z,27.02
2022-08-22T17:53:27.892Z,26.75
2022-08-22T17:56:04.865Z,26.72
2022-08-22T17:58:43.820Z,26.70
2022-08-22T18:01:15.902Z,26.51
2022-08-22T18:03:51.463Z,26.29
2022-08-22T18:06:22.497Z,26.18
2022-08-22T18:11:53.013Z,25.80
2022-08-22T18:14:29.470Z,25.62
2022-08-22T18:17:00.716Z,25.41
2022-08-22T18:19:43.019Z,25.29
2022-08-22T18:22:20.686Z,25.12
2022-08-22T18:24:54.447Z,25.02
2022-08-22T18:27:35.022Z,24.89
2022-08-22T18:30:15.087Z,24.85
2022-08-22T18:32:52.287Z,24.71
2022-08-22T18:35:26.851Z,24.59
2022-08-22T18:38:19.911Z,24.56
2022-08-22T18:40:55.285Z,24.43
2022-08-22T18:43:36.135Z,24.24
2022-08-22T18:46:27.179Z,24.19
2022-08-22T18:49:14.690Z,24.07
2022-08-22T18:51:44.063Z,23.85
2022-08-22T18:54:30.357Z,23.73
2022-08-22T18:57:10.812Z,23.67
2022-08-22T19:00:02.578Z,23.59
2022-08-22T19:02:58.338Z,23.48
2022-08-22T19:05:44.571Z,23.34
2022-08-22T19:08:40.425Z,23.13
2022-08-22T19:11:23.733Z,23.08
2022-08-22T19:14:18.498Z,22.93
2022-08-22T19:17:06.211Z,22.78
2022-08-22T19:20:03.228Z,22.98
2022-08-22T19:22:34.332Z,22.93
2022-08-22T19:25:14.019Z,22.90
2022-08-22T19:27:45.520Z,22.83
2022-08-22T19:30:42.901Z,22.66
2022-08-22T19:33:12.633Z,22.60
2022-08-22T19:36:04.183Z,22.46
2022-08-22T19:38:52.124Z,22.35
2022-08-22T19:41:39.222Z,22.32
2022-08-22T19:44:11.063Z,22.23
2022-08-22T19:46:43.089Z,22.13
2022-08-22T19:49:30.982Z,22.03
2022-08-22T19:52:11.903Z,21.95
2022-08-22T19:54:50.188Z,21.88
2022-08-22T19:57:26.440Z,21.76
2022-08-22T20:00:02.454Z,21.65
2022-08-22T20:02:54.048Z,21.67
2022-08-22T20:05:35.868Z,21.68
2022-08-22T20:08:20.936Z,21.58
2022-08-22T20:11:05.066Z,21.53
2022-08-22T20:13:36.443Z,21.50
2022-08-22T20:16:10.235Z,21.59
2022-08-22T20:19:06.122Z,21.72
2022-08-22T20:21:40.514Z,21.82
2022-08-22T20:24:13.818Z,21.87
2022-08-22T20:27:12.243Z,21.83
2022-08-22T20:29:39.633Z,21.76
2022-08-22T20:32:07.876Z,21.78
2022-08-22T20:34:39.314Z,21.89
2022-08-22T20:37:35.890Z,21.87
2022-08-22T20:40:03.961Z,21.88
2022-08-22T20:42:36.406Z,21.86
2022-08-22T20:45:12.263Z,21.79
2022-08-22T20:47:43.542Z,21.74
2022-08-22T20:50:24.081Z,21.62
2022-08-22T20:53:09.573Z,21.54
2022-08-22T20:55:37.859Z,21.72
2022-08-22T20:58:20.543Z,21.77
2022-08-22T21:00:52.303Z,21.65
2022-08-22T21:03:33.485Z,22.14
2022-08-22T21:06:13.162Z,22.17
2022-08-22T21:08:42.551Z,22.12
2022-08-22T21:11:34.164Z,22.03
2022-08-22T21:14:18.477Z,22.86
2022-08-22T21:16:46.616Z,22.96
2022-08-22T21:19:19.079Z,22.94
2022-08-22T21:21:48.537Z,22.74
2022-08-22T21:24:16.737Z,23.25
2022-08-22T21:26:49.956Z,23.35
2022-08-22T21:29:26.571Z,23.55
2022-08-22T21:32:16.891Z,23.84
2022-08-22T21:34:47.505Z,23.72
2022-08-22T21:37:19.632Z,23.90
2022-08-22T21:39:50.765Z,23.75
2022-08-22T21:42:25.070Z,23.64
2022-08-22T21:44:58.426Z,23.60
2022-08-22T21:47:31.682Z,23.51
2022-08-22T21:50:03.912Z,23.44
2022-08-22T21:52:35.022Z,23.49
2022-08-22T21:55:24.544Z,23.29
2022-08-22T21:58:02.981Z,23.36
2022-08-22T22:00:51.846Z,23.17
2022-08-22T22:03:22.134Z,23.32
2022-08-22T22:05:52.731Z,23.47
2022-08-22T22:08:22.021Z,23.33
2022-08-22T22:10:51.675Z,23.31
2022-08-22T22:13:21.355Z,23.05
2022-08-22T22:15:53.807Z,22.92
2022-08-22T22:18:25.255Z,22.68
2022-08-22T22:20:54.998Z,22.55
2022-08-22T22:23:25.612Z,22.41
2022-08-22T22:25:55.390Z,22.23
2022-08-22T22:28:26.446Z,22.17
2022-08-22T22:30:54.573Z,22.18
2022-08-22T22:33:26.663Z,22.20
2022-08-22T22:35:56.700Z,22.39
2022-08-22T22:38:26.874Z,22.27
2022-08-22T22:40:54.912Z,22.17
2022-08-22T22:43:22.947Z,22.12
2022-08-22T22:45:50.878Z,22.14
2022-08-22T22:48:24.203Z,22.08
2022-08-22T22:50:53.265Z,22.23
2022-08-22T22:53:40.467Z,22.09
2022-08-22T22:56:14.409Z,22.19
2022-08-22T22:58:44.370Z,22.22
2022-08-22T23:01:15.076Z,22.05
2022-08-22T23:03:43.750Z,22.00
2022-08-22T23:06:12.932Z,21.93
2022-08-22T23:08:41.434Z,21.97
2022-08-22T23:11:13.618Z,21.87
2022-08-22T23:13:42.865Z,21.98
2022-08-22T23:16:12.808Z,21.74
2022-08-22T23:18:40.753Z,21.88
2022-08-22T23:21:13.344Z,22.10
2022-08-22T23:23:41.575Z,22.29
2022-08-22T23:26:09.737Z,22.37
2022-08-22T23:28:39.121Z,22.17
2022-08-22T23:31:12.450Z,22.10
2022-08-22T23:33:40.722Z,21.86
2022-08-22T23:36:13.974Z,21.77
2022-08-22T23:38:42.506Z,21.66
2022-08-22T23:41:13.029Z,21.59
2022-08-22T23:43:44.751Z,21.51
2022-08-22T23:46:13.694Z,21.46
